createdAt,value
2023-11-24T00:01:08.522Z,79.23
2023-11-24T00:03:40.551Z,79.59
2023-11-24T00:06:08.918Z,79.53
2023-11-24T00:08:37.619Z,79.53
2023-11-24T00:11:06.209Z,78.67
2023-11-24T00:13:34.155Z,77.91
2023-11-24T00:16:02.811Z,77.96
2023-11-24T00:18:31.700Z,76.98
2023-11-24T00:21:07.613Z,77.00
2023-11-24T00:23:35.856Z,76.99
2023-11-24T00:26:08.127Z,76.85
2023-11-24T00:28:40.680Z,75.46
2023-11-24T00:31:09.389Z,74.93
2023-11-24T00:33:37.737Z,73.67
2023-11-24T00:36:09.118Z,73.31
2023-11-24T00:38:37.300Z,72.78
2023-11-24T00:41:09.652Z,72.88
2023-11-24T00:43:38.164Z,73.38
2023-11-24T00:46:07.582Z,73.64
2023-11-24T00:48:36.837Z,73.57
2023-11-24T00:51:08.488Z,73.45
2023-11-24T00:53:36.520Z,72.85
2023-11-24T00:56:05.130Z,72.48
2023-11-24T00:58:33.111Z,71.86
2023-11-24T01:01:01.931Z,71.61
2023-11-24T01:03:30.275Z,71.30
2023-11-24T01:05:59.412Z,70.79
2023-11-24T01:08:27.547Z,71.46
2023-11-24T01:10:57.821Z,72.09
2023-11-24T01:13:26.123Z,72.78
2023-11-24T01:15:54.104Z,73.64
2023-11-24T01:18:22.735Z,74.59
2023-11-24T01:20:50.788Z,75.50
2023-11-24T01:23:18.967Z,76.12
2023-11-24T01:25:48.170Z,76.41
2023-11-24T01:28:16.417Z,76.62
2023-11-24T01:30:44.743Z,76.66
2023-11-24T01:33:13.019Z,77.07
2023-11-24T01:35:41.762Z,77.43
2023-11-24T01:38:10.989Z,77.96
2023-11-24T01:40:39.333Z,78.62
2023-11-24T01:43:08.012Z,79.09
2023-11-24T01:45:36.011Z,79.36
2023-11-24T01:48:04.517Z,80.00
2023-11-24T01:50:33.396Z,80.09
2023-11-24T01:53:01.629Z,80.01
2023-11-24T01:55:29.892Z,80.04
2023-11-24T01:57:58.473Z,79.93
2023-11-24T02:00:27.770Z,79.90
2023-11-24T02:02:59.130Z,79.87
2023-11-24T02:05:27.394Z,80.08
2023-11-24T02:07:56.039Z,80.18
2023-11-24T02:10:24.101Z,80.06
2023-11-24T02:12:52.894Z,79.84
2023-11-24T02:15:21.287Z,79.75
2023-11-24T02:17:49.421Z,79.48
2023-11-24T02:20:18.138Z,79.37
2023-11-24T02:22:46.255Z,79.39
2023-11-24T02:25:15.236Z,79.37
2023-11-24T02:27:43.551Z,79.36
2023-11-24T02:30:13.006Z,79.33
2023-11-24T02:32:41.299Z,79.14
2023-11-24T02:35:10.979Z,79.01
2023-11-24T02:37:39.383Z,78.84
2023-11-24T02:40:09.836Z,78.65
2023-11-24T02:42:37.963Z,78.46
2023-11-24T02:45:07.500Z,78.53
2023-11-24T02:47:35.926Z,78.64
2023-11-24T02:50:04.929Z,78.78
2023-11-24T02:52:33.027Z,78.71
2023-11-24T02:55:01.193Z,78.54
2023-11-24T02:57:29.339Z,78.37
2023-11-24T02:59:57.344Z,78.34
2023-11-24T03:02:25.453Z,78.00
2023-11-24T03:04:53.641Z,77.71
2023-11-24T03:07:21.869Z,77.44
2023-11-24T03:09:53.051Z,76.98
2023-11-24T03:12:22.710Z,77.01
2023-11-24T03:14:50.878Z,77.05
2023-11-24T03:17:18.792Z,77.12
2023-11-24T03:19:46.785Z,77.26
2023-11-24T03:22:15.730Z,77.35
2023-11-24T03:24:43.836Z,77.68
2023-11-24T03:27:11.953Z,77.71
2023-11-24T03:29:40.994Z,77.96
2023-11-24T03:32:08.943Z,78.14
2023-11-24T03:34:37.459Z,78.38
2023-11-24T03:37:05.824Z,78.64
2023-11-24T03:39:34.042Z,78.85
2023-11-24T03:42:02.219Z,79.15
2023-11-24T03:44:30.283Z,79.39
2023-11-24T03:46:58.787Z,79.74
2023-11-24T03:49:26.870Z,79.89
2023-11-24T03:51:54.839Z,79.90
2023-11-24T03:54:23.456Z,79.93
2023-11-24T03:56:51.634Z,79.97
2023-11-24T03:59:19.659Z,79.83
2023-11-24T04:01:47.704Z,79.68
2023-11-24T04:04:16.059Z,79.53
2023-11-24T04:06:44.591Z,79.39
2023-11-24T04:09:12.689Z,79.38
2023-11-24T04:11:40.799Z,79.06
2023-11-24T04:14:08.841Z,79.15
2023-11-24T04:16:37.713Z,79.04
2023-11-24T04:19:08.117Z,79.13
2023-11-24T04:21:37.424Z,79.18
2023-11-24T04:24:06.466Z,79.19
2023-11-24T04:26:35.582Z,79.45
2023-11-24T04:29:04.266Z,79.43
2023-11-24T04:31:32.244Z,79.48
2023-11-24T04:34:01.652Z,79.50
2023-11-24T04:36:30.234Z,79.52
2023-11-24T04:38:58.382Z,79.59
2023-11-24T04:41:26.438Z,79.60
2023-11-24T04:43:54.524Z,79.54
2023-11-24T04:46:23.379Z,79.30
2023-11-24T04:48:51.543Z,78.99
2023-11-24T04:51:19.793Z,78.87
2023-11-24T04:53:48.035Z,78.98
2023-11-24T04:56:16.103Z,79.29
2023-11-24T04:58:44.539Z,79.17
2023-11-24T05:01:13.102Z,78.83
2023-11-24T05:03:41.966Z,78.59
2023-11-24T05:06:10.022Z,78.37
2023-11-24T05:08:38.365Z,78.20
2023-11-24T05:11:09.480Z,78.22
2023-11-24T05:13:37.554Z,78.42
2023-11-24T05:16:06.563Z,78.62
2023-11-24T05:18:34.753Z,78.88
2023-11-24T05:21:02.763Z,78.93
2023-11-24T05:23:30.739Z,79.02
2023-11-24T05:25:58.836Z,79.27
2023-11-24T05:28:26.904Z,79.26
2023-11-24T05:30:55.492Z,79.48
2023-11-24T05:33:23.634Z,79.51
2023-11-24T05:35:51.688Z,79.67
2023-11-24T05:38:19.816Z,79.79
2023-11-24T05:40:47.828Z,80.00
2023-11-24T05:43:16.052Z,80.46
2023-11-24T05:45:44.327Z,80.67
2023-11-24T05:48:12.394Z,80.82
2023-11-24T05:50:40.385Z,81.01
2023-11-24T05:53:08.783Z,81.16
2023-11-24T05:55:36.872Z,81.22
2023-11-24T05:58:07.250Z,81.06
2023-11-24T06:00:35.526Z,80.82
2023-11-24T06:03:03.741Z,80.36
2023-11-24T06:05:31.951Z,80.12
2023-11-24T06:08:02.945Z,80.09
2023-11-24T06:10:30.926Z,79.54
2023-11-24T06:12:59.267Z,79.48
2023-11-24T06:15:27.437Z,79.33
2023-11-24T06:17:55.488Z,79.23
2023-11-24T06:20:25.402Z,79.14
2023-11-24T06:22:53.470Z,79.34
2023-11-24T06:25:21.656Z,79.49
2023-11-24T06:27:49.885Z,79.52
2023-11-24T06:30:18.490Z,79.89
2023-11-24T06:32:46.595Z,80.24
2023-11-24T06:35:16.969Z,80.23
2023-11-24T06:37:45.112Z,80.46
2023-11-24T06:40:13.469Z,80.71
2023-11-24T06:42:42.274Z,80.90
2023-11-24T06:45:14.042Z,81.52
2023-11-24T06:47:42.845Z,81.80
2023-11-24T06:50:13.550Z,81.96
2023-11-24T06:52:42.557Z,82.02
2023-11-24T06:55:14.338Z,82.26
2023-11-24T06:57:42.813Z,82.34
2023-11-24T07:00:17.918Z,82.58
2023-11-24T07:02:47.561Z,83.03
2023-11-24T07:05:19.397Z,83.26
2023-11-24T07:07:47.463Z,83.34
2023-11-24T07:10:16.083Z,83.37
2023-11-24T07:12:45.396Z,83.61
2023-11-24T07:15:14.301Z,83.89
2023-11-24T07:17:42.650Z,83.80
2023-11-24T07:20:12.837Z,84.16
2023-11-24T07:22:45.521Z,84.00
2023-11-24T07:25:16.466Z,84.37
2023-11-24T07:27:44.751Z,84.50
2023-11-24T07:30:13.334Z,84.37
2023-11-24T07:32:41.646Z,84.49
2023-11-24T07:35:12.033Z,84.57
2023-11-24T07:37:40.354Z,84.35
2023-11-24T07:40:15.717Z,84.67
2023-11-24T07:42:46.006Z,84.25
2023-11-24T07:45:14.532Z,84.58
2023-11-24T07:47:42.667Z,84.33
2023-11-24T07:50:11.089Z,84.45
2023-11-24T07:52:39.143Z,84.47
2023-11-24T07:55:07.549Z,84.70
2023-11-24T07:57:36.776Z,84.61
2023-11-24T08:00:05.592Z,84.59
2023-11-24T08:02:41.366Z,84.53
2023-11-24T08:05:10.077Z,84.37
2023-11-24T08:07:39.036Z,84.58
2023-11-24T08:10:08.128Z,84.58
2023-11-24T08:12:36.168Z,84.55
2023-11-24T08:15:04.445Z,84.70
2023-11-24T08:17:32.539Z,84.68
2023-11-24T08:20:00.728Z,84.45
2023-11-24T08:22:29.772Z,84.66
2023-11-24T08:24:57.915Z,84.44
2023-11-24T08:27:26.064Z,84.40
2023-11-24T08:29:54.232Z,84.27
2023-11-24T08:32:22.260Z,84.14
2023-11-24T08:34:50.503Z,83.99
2023-11-24T08:37:19.128Z,83.87
2023-11-24T08:39:47.253Z,83.68
2023-11-24T08:42:15.807Z,83.83
2023-11-24T08:44:43.791Z,83.84
2023-11-24T08:47:11.907Z,83.55
2023-11-24T08:49:40.393Z,83.57
2023-11-24T08:52:10.752Z,83.42
2023-11-24T08:54:39.570Z,83.36
2023-11-24T08:57:08.996Z,83.39
2023-11-24T08:59:37.636Z,83.38
2023-11-24T09:02:05.959Z,82.93
2023-11-24T09:04:34.172Z,82.80
2023-11-24T09:07:02.594Z,82.78
2023-11-24T09:09:30.573Z,82.55
2023-11-24T09:11:58.546Z,82.22
2023-11-24T09:14:26.603Z,81.95
2023-11-24T09:16:54.880Z,81.72
2023-11-24T09:19:23.185Z,81.39
2023-11-24T09:21:51.928Z,81.46
2023-11-24T09:24:20.088Z,81.41
2023-11-24T09:26:48.126Z,81.23
2023-11-24T09:29:16.226Z,81.12
2023-11-24T09:31:44.458Z,81.00
2023-11-24T09:34:13.334Z,81.13
2023-11-24T09:36:43.384Z,81.06
2023-11-24T09:39:11.376Z,81.37
2023-11-24T09:41:41.010Z,81.23
2023-11-24T09:44:11.447Z,81.19
2023-11-24T09:46:49.214Z,81.34
2023-11-24T09:49:21.581Z,81.36
2023-11-24T09:51:49.716Z,81.71
2023-11-24T09:54:19.405Z,81.36
2023-11-24T09:56:47.728Z,81.54
2023-11-24T09:59:15.902Z,81.21
2023-11-24T10:01:44.219Z,81.09
2023-11-24T10:04:14.067Z,80.90
2023-11-24T10:06:45.038Z,80.91
2023-11-24T10:09:23.108Z,80.93
2023-11-24T10:11:51.627Z,81.06
2023-11-24T10:14:22.965Z,81.09
2023-11-24T10:16:51.200Z,81.31
2023-11-24T10:19:22.877Z,81.53
2023-11-24T10:21:55.102Z,81.49
2023-11-24T10:24:26.655Z,81.00
2023-11-24T10:26:54.998Z,80.92
2023-11-24T10:29:28.453Z,80.20
2023-11-24T10:31:56.428Z,80.02
2023-11-24T10:34:25.951Z,79.76
2023-11-24T10:36:54.883Z,79.88
2023-11-24T10:39:26.892Z,79.44
2023-11-24T10:41:56.034Z,79.34
2023-11-24T10:44:26.490Z,79.45
2023-11-24T10:47:01.393Z,79.22
2023-11-24T10:49:35.971Z,79.01
2023-11-24T10:52:14.621Z,78.83
2023-11-24T10:54:51.603Z,78.49
2023-11-24T10:57:23.349Z,77.54
2023-11-24T10:59:51.948Z,77.41
2023-11-24T11:02:20.986Z,77.37
2023-11-24T11:05:18.876Z,77.92
2023-11-24T11:08:20.472Z,77.90
2023-11-24T11:11:03.242Z,77.44
2023-11-24T11:13:32.040Z,76.67
2023-11-24T11:16:00.135Z,76.39
2023-11-24T11:18:28.189Z,76.56
2023-11-24T11:20:56.191Z,75.84
2023-11-24T11:23:27.275Z,75.73
2023-11-24T11:25:55.539Z,75.38
2023-11-24T11:28:36.056Z,75.47
2023-11-24T11:31:24.133Z,75.26
2023-11-24T11:33:52.207Z,74.70
2023-11-24T11:36:23.581Z,74.52
2023-11-24T11:38:54.763Z,74.88
2023-11-24T11:41:46.443Z,74.98
2023-11-24T11:44:27.499Z,74.86
2023-11-24T11:47:23.075Z,75.44
2023-11-24T11:49:55.896Z,75.40
2023-11-24T11:52:27.643Z,75.02
2023-11-24T11:54:58.112Z,75.31
2023-11-24T11:57:26.598Z,74.82
2023-11-24T11:59:55.131Z,74.67
2023-11-24T12:02:24.789Z,74.42
2023-11-24T12:04:53.299Z,74.71
2023-11-24T12:07:21.990Z,74.53
2023-11-24T12:09:50.872Z,74.49
2023-11-24T12:12:21.051Z,74.91
2023-11-24T12:14:50.581Z,74.53
2023-11-24T12:17:18.961Z,73.87
2023-11-24T12:19:49.677Z,73.93
2023-11-24T12:22:19.710Z,74.02
2023-11-24T12:24:48.397Z,74.08
2023-11-24T12:27:16.606Z,74.43
2023-11-24T12:29:47.457Z,74.19
2023-11-24T12:32:15.904Z,73.93
2023-11-24T12:34:46.547Z,74.64
2023-11-24T12:37:15.362Z,74.78
2023-11-24T12:39:43.891Z,74.52
2023-11-24T12:42:12.368Z,73.69
2023-11-24T12:44:41.197Z,73.56
2023-11-24T12:47:16.043Z,73.96
2023-11-24T12:50:02.203Z,73.89
2023-11-24T12:52:32.723Z,73.68
2023-11-24T12:55:08.911Z,73.73
2023-11-24T12:57:41.410Z,73.63
2023-11-24T13:00:16.113Z,73.30
2023-11-24T13:02:46.428Z,73.37
2023-11-24T13:05:17.745Z,73.30
2023-11-24T13:07:46.532Z,72.78
2023-11-24T13:10:14.810Z,72.55
2023-11-24T13:12:43.312Z,72.47
2023-11-24T13:15:11.635Z,72.46
2023-11-24T13:17:40.182Z,72.30
2023-11-24T13:20:13.067Z,72.40
2023-11-24T13:22:43.578Z,72.31
2023-11-24T13:25:13.047Z,72.36
2023-11-24T13:27:43.062Z,72.06
2023-11-24T13:30:13.248Z,72.10
2023-11-24T13:32:43.025Z,72.06
2023-11-24T13:35:12.317Z,72.07
2023-11-24T13:37:40.847Z,71.89
2023-11-24T13:40:13.409Z,71.87
2023-11-24T13:42:41.730Z,71.78
2023-11-24T13:45:12.834Z,72.09
2023-11-24T13:47:42.560Z,72.18
2023-11-24T13:50:11.278Z,72.18
2023-11-24T13:52:39.383Z,72.41
2023-11-24T13:55:08.251Z,72.65
2023-11-24T13:57:37.191Z,73.15
2023-11-24T14:00:10.896Z,73.21
2023-11-24T14:02:39.281Z,73.33
2023-11-24T14:05:09.937Z,73.60
2023-11-24T14:07:38.058Z,73.33
2023-11-24T14:10:07.777Z,73.60
2023-11-24T14:12:36.659Z,73.53
2023-11-24T14:15:05.825Z,73.93
2023-11-24T14:17:37.176Z,73.96
2023-11-24T14:20:08.208Z,74.78
2023-11-24T14:22:37.590Z,74.42
2023-11-24T14:25:10.277Z,74.27
2023-11-24T14:27:41.594Z,74.86
2023-11-24T14:30:09.989Z,75.83
2023-11-24T14:32:38.164Z,76.06
2023-11-24T14:35:07.923Z,76.32
2023-11-24T14:37:36.219Z,76.48
2023-11-24T14:40:19.939Z,76.21
2023-11-24T14:42:51.240Z,75.96
2023-11-24T14:45:22.061Z,74.97
2023-11-24T14:47:51.548Z,74.33
2023-11-24T14:50:20.734Z,74.24
2023-11-24T14:52:49.012Z,74.37
2023-11-24T14:55:18.152Z,75.18
2023-11-24T14:57:46.740Z,75.11
2023-11-24T15:00:32.014Z,74.38
2023-11-24T15:03:09.366Z,74.91
2023-11-24T15:05:42.076Z,74.69
2023-11-24T15:08:15.477Z,74.65
2023-11-24T15:10:44.930Z,75.08
2023-11-24T15:13:22.921Z,74.89
2023-11-24T15:15:51.265Z,74.63
2023-11-24T15:18:21.651Z,75.05
2023-11-24T15:20:54.642Z,75.32
2023-11-24T15:23:25.082Z,75.39
2023-11-24T15:25:56.396Z,75.54
2023-11-24T15:28:25.162Z,75.24
2023-11-24T15:30:55.105Z,75.21
2023-11-24T15:33:23.584Z,74.97
2023-11-24T15:35:51.769Z,74.11
2023-11-24T15:38:21.845Z,73.93
2023-11-24T15:40:52.520Z,73.59
2023-11-24T15:43:25.455Z,73.84
2023-11-24T15:45:56.340Z,74.53
2023-11-24T15:48:26.553Z,74.22
2023-11-24T15:50:54.769Z,73.92
2023-11-24T15:53:23.355Z,74.12
2023-11-24T15:55:52.916Z,73.41
2023-11-24T15:58:26.566Z,73.60
2023-11-24T16:00:58.089Z,74.31
2023-11-24T16:03:26.697Z,74.14
2023-11-24T16:05:59.334Z,74.22
2023-11-24T16:08:34.586Z,74.32
2023-11-24T16:11:11.388Z,74.93
2023-11-24T16:13:42.770Z,74.61
2023-11-24T16:16:11.336Z,74.21
2023-11-24T16:18:41.825Z,74.96
2023-11-24T16:21:09.954Z,75.56
2023-11-24T16:23:37.949Z,76.26
2023-11-24T16:26:06.181Z,76.30
2023-11-24T16:28:35.077Z,76.46
2023-11-24T16:31:03.228Z,76.62
2023-11-24T16:33:34.454Z,76.64
2023-11-24T16:36:02.592Z,76.38
2023-11-24T16:38:31.896Z,76.37
2023-11-24T16:41:04.845Z,76.35
2023-11-24T16:43:33.095Z,76.38
2023-11-24T16:46:01.184Z,76.26
2023-11-24T16:48:29.172Z,75.63
2023-11-24T16:50:58.368Z,75.90
2023-11-24T16:53:26.350Z,75.47
2023-11-24T16:55:54.384Z,74.61
2023-11-24T16:58:22.655Z,74.30
2023-11-24T17:00:50.985Z,74.22
2023-11-24T17:03:19.225Z,73.92
2023-11-24T17:05:47.921Z,74.17
2023-11-24T17:08:15.986Z,73.97
2023-11-24T17:10:44.146Z,73.98
2023-11-24T17:13:12.332Z,74.06
2023-11-24T17:15:40.440Z,74.24
2023-11-24T17:18:10.704Z,74.54
2023-11-24T17:20:38.888Z,74.79
2023-11-24T17:23:07.074Z,75.00
2023-11-24T17:25:37.249Z,75.30
2023-11-24T17:28:06.572Z,75.16
2023-11-24T17:30:35.375Z,75.50
2023-11-24T17:33:03.689Z,75.55
2023-11-24T17:35:32.493Z,75.59
2023-11-24T17:38:00.700Z,75.80
2023-11-24T17:40:28.990Z,76.10
2023-11-24T17:42:57.324Z,76.50
2023-11-24T17:45:25.442Z,77.12
2023-11-24T17:47:53.687Z,77.53
2023-11-24T17:50:21.927Z,77.65
2023-11-24T17:52:50.659Z,77.83
2023-11-24T17:55:21.968Z,78.04
2023-11-24T17:57:50.628Z,78.29
2023-11-24T18:00:22.587Z,78.70
2023-11-24T18:02:51.118Z,78.80
2023-11-24T18:05:19.713Z,78.97
2023-11-24T18:07:47.899Z,79.21
2023-11-24T18:10:16.156Z,79.26
2023-11-24T18:12:44.800Z,79.29
2023-11-24T18:15:14.893Z,79.47
2023-11-24T18:17:43.452Z,79.37
2023-11-24T18:20:15.140Z,79.55
2023-11-24T18:22:43.701Z,79.47
2023-11-24T18:25:13.440Z,79.59
2023-11-24T18:27:41.574Z,79.61
2023-11-24T18:30:11.326Z,79.73
2023-11-24T18:32:40.675Z,79.98
2023-11-24T18:35:09.872Z,80.07
2023-11-24T18:37:39.130Z,79.96
2023-11-24T18:40:09.661Z,79.90
2023-11-24T18:42:37.841Z,79.61
2023-11-24T18:45:07.911Z,79.71
2023-11-24T18:47:36.224Z,79.65
2023-11-24T18:50:07.420Z,80.25
2023-11-24T18:52:36.119Z,80.52
2023-11-24T18:55:08.270Z,80.33
2023-11-24T18:57:36.478Z,80.08
2023-11-24T19:00:06.192Z,79.88
2023-11-24T19:02:36.215Z,79.94
2023-11-24T19:05:07.368Z,80.36
2023-11-24T19:07:35.810Z,80.44
2023-11-24T19:10:04.574Z,80.21
2023-11-24T19:12:32.612Z,80.39
2023-11-24T19:15:00.704Z,80.86
2023-11-24T19:17:28.868Z,80.69
2023-11-24T19:19:57.314Z,80.45
2023-11-24T19:22:25.367Z,80.29
2023-11-24T19:24:53.417Z,80.08
2023-11-24T19:27:21.475Z,80.10
2023-11-24T19:29:49.576Z,80.21
2023-11-24T19:32:17.998Z,80.30
2023-11-24T19:34:46.197Z,80.42
2023-11-24T19:37:14.412Z,80.05
2023-11-24T19:39:44.177Z,80.32
2023-11-24T19:42:12.163Z,80.17
2023-11-24T19:44:40.223Z,80.10
2023-11-24T19:47:10.584Z,80.28
2023-11-24T19:49:39.639Z,80.15
2023-11-24T19:52:07.961Z,80.24
2023-11-24T19:54:36.098Z,80.16
2023-11-24T19:57:05.432Z,80.32
2023-11-24T19:59:33.552Z,80.21
2023-11-24T20:02:04.221Z,80.17
2023-11-24T20:04:32.422Z,80.38
2023-11-24T20:07:00.757Z,80.42
2023-11-24T20:09:29.028Z,80.52
2023-11-24T20:11:57.352Z,80.38
2023-11-24T20:14:25.471Z,80.76
2023-11-24T20:16:53.551Z,81.17
2023-11-24T20:19:22.067Z,81.47
2023-11-24T20:21:50.289Z,81.53
2023-11-24T20:24:18.612Z,81.79
2023-11-24T20:26:46.736Z,81.79
2023-11-24T20:29:15.857Z,81.97
2023-11-24T20:31:44.615Z,82.22
2023-11-24T20:34:12.829Z,82.27
2023-11-24T20:36:40.971Z,82.32
2023-11-24T20:39:09.032Z,82.44
2023-11-24T20:41:41.154Z,82.34
2023-11-24T20:44:09.589Z,82.41
2023-11-24T20:46:38.263Z,82.24
2023-11-24T20:49:07.652Z,82.21
2023-11-24T20:51:35.835Z,82.28
2023-11-24T20:54:04.035Z,82.23
2023-11-24T20:56:32.279Z,82.45
2023-11-24T20:59:00.356Z,82.46
2023-11-24T21:01:29.018Z,82.42
2023-11-24T21:03:57.373Z,82.04
2023-11-24T21:06:25.387Z,82.05
2023-11-24T21:08:59.637Z,82.02
2023-11-24T21:11:28.998Z,82.23
2023-11-24T21:13:57.236Z,82.25
2023-11-24T21:16:27.045Z,82.23
2023-11-24T21:18:55.499Z,82.39
2023-11-24T21:21:23.867Z,82.36
2023-11-24T21:23:52.014Z,82.46
2023-11-24T21:26:21.570Z,82.70
2023-11-24T21:28:50.747Z,82.73
2023-11-24T21:31:20.396Z,82.58
2023-11-24T21:33:50.076Z,82.29
2023-11-24T21:36:18.325Z,82.57
2023-11-24T21:38:46.476Z,82.60
2023-11-24T21:41:20.771Z,82.15
2023-11-24T21:43:50.012Z,82.42
2023-11-24T21:46:24.118Z,82.59
2023-11-24T21:48:53.095Z,82.70
2023-11-24T21:51:21.169Z,83.08
2023-11-24T21:53:49.232Z,83.05
2023-11-24T21:56:31.580Z,83.24
2023-11-24T21:59:00.123Z,83.29
2023-11-24T22:01:28.612Z,83.34
2023-11-24T22:03:57.193Z,83.46
2023-11-24T22:06:29.721Z,83.80
2023-11-24T22:08:57.850Z,84.29
2023-11-24T22:11:25.839Z,84.34
2023-11-24T22:13:53.803Z,84.55
2023-11-24T22:16:22.326Z,84.59
2023-11-24T22:18:51.659Z,84.98
2023-11-24T22:21:21.304Z,84.96
2023-11-24T22:23:50.042Z,85.16
2023-11-24T22:26:23.211Z,84.88
2023-11-24T22:28:53.686Z,85.19
2023-11-24T22:31:21.894Z,85.26
2023-11-24T22:33:50.244Z,85.51
2023-11-24T22:36:20.732Z,85.41
2023-11-24T22:38:50.724Z,85.08
2023-11-24T22:41:22.338Z,85.51
2023-11-24T22:43:53.789Z,85.59
2023-11-24T22:46:24.166Z,85.80
2023-11-24T22:48:53.910Z,85.62
2023-11-24T22:51:24.113Z,85.77
2023-11-24T22:53:52.403Z,85.68
2023-11-24T22:56:25.271Z,85.30
2023-11-24T22:59:00.104Z,85.43
2023-11-24T23:01:28.883Z,85.73
2023-11-24T23:03:59.188Z,86.01
2023-11-24T23:06:29.469Z,86.12
2023-11-24T23:08:57.902Z,86.46
2023-11-24T23:11:27.344Z,86.40
2023-11-24T23:13:55.480Z,86.70
2023-11-24T23:16:26.863Z,86.81
2023-11-24T23:18:55.114Z,86.62
2023-11-24T23:21:24.168Z,86.47
2023-11-24T23:23:53.214Z,86.29
2023-11-24T23:26:22.806Z,86.05
2023-11-24T23:28:51.800Z,85.72
2023-11-24T23:31:20.353Z,85.64
2023-11-24T23:33:48.598Z,85.57
2023-11-24T23:36:17.256Z,85.46
2023-11-24T23:38:47.122Z,85.32
2023-11-24T23:41:15.522Z,85.36
2023-11-24T23:43:44.270Z,85.28
2023-11-24T23:46:12.731Z,85.12
2023-11-24T23:48:40.885Z,84.92
2023-11-24T23:51:08.921Z,84.97
2023-11-24T23:53:36.988Z,84.84
2023-11-24T23:56:06.963Z,84.90
2023-11-24T23:58:38.655Z,84.69
